sensor_id;sensor_type;location;lat;lon;timestamp;P1;durP1;ratioP1;P2;durP2;ratioP2
22334;SDS011;11335;43.848;25.958;2023-06-26T00:02:03;35.22;;;9.48;;
22334;SDS011;11335;43.848;25.958;2023-06-26T00:04:49;31.27;;;9.73;;
22334;SDS011;11335;43.848;25.958;2023-06-26T00:07:39;32.33;;;9.38;;
22334;SDS011;11335;43.848;25.958;2023-06-26T00:10:24;28.00;;;9.90;;
22334;SDS011;11335;43.848;25.958;2023-06-26T00:13:10;31.02;;;10.25;;
22334;SDS011;11335;43.848;25.958;2023-06-26T00:15:57;34.40;;;10.32;;
22334;SDS011;11335;43.848;25.958;2023-06-26T00:18:43;29.00;;;10.15;;
22334;SDS011;11335;43.848;25.958;2023-06-26T00:21:29;28.02;;;10.05;;
22334;SDS011;11335;43.848;25.958;2023-06-26T00:24:14;31.10;;;10.73;;
22334;SDS011;11335;43.848;25.958;2023-06-26T00:27:00;29.38;;;10.68;;
22334;SDS011;11335;43.848;25.958;2023-06-26T00:29:46;23.00;;;9.85;;
22334;SDS011;11335;43.848;25.958;2023-06-26T00:32:32;24.90;;;8.85;;
22334;SDS011;11335;43.848;25.958;2023-06-26T00:35:17;26.42;;;9.48;;
22334;SDS011;11335;43.848;25.958;2023-06-26T00:38:03;26.77;;;9.27;;
22334;SDS011;11335;43.848;25.958;2023-06-26T00:40:49;28.90;;;10.15;;
22334;SDS011;11335;43.848;25.958;2023-06-26T00:43:34;26.48;;;9.75;;
22334;SDS011;11335;43.848;25.958;2023-06-26T00:46:20;20.80;;;9.82;;
22334;SDS011;11335;43.848;25.958;2023-06-26T00:49:06;20.63;;;10.27;;
22334;SDS011;11335;43.848;25.958;2023-06-26T00:51:52;19.23;;;10.02;;
22334;SDS011;11335;43.848;25.958;2023-06-26T00:54:38;19.85;;;10.25;;
22334;SDS011;11335;43.848;25.958;2023-06-26T00:57:24;18.45;;;10.30;;
22334;SDS011;11335;43.848;25.958;2023-06-26T01:00:11;23.92;;;9.73;;
22334;SDS011;11335;43.848;25.958;2023-06-26T01:02:58;24.20;;;9.73;;
22334;SDS011;11335;43.848;25.958;2023-06-26T01:05:44;20.95;;;9.73;;
22334;SDS011;11335;43.848;25.958;2023-06-26T01:08:30;30.30;;;9.68;;
22334;SDS011;11335;43.848;25.958;2023-06-26T01:11:16;17.33;;;9.27;;
22334;SDS011;11335;43.848;25.958;2023-06-26T01:14:04;21.10;;;10.40;;
22334;SDS011;11335;43.848;25.958;2023-06-26T01:16:50;26.20;;;10.02;;
22334;SDS011;11335;43.848;25.958;2023-06-26T01:19:37;22.42;;;10.23;;
22334;SDS011;11335;43.848;25.958;2023-06-26T01:28:06;22.92;;;10.32;;
22334;SDS011;11335;43.848;25.958;2023-06-26T01:30:53;21.95;;;10.13;;
22334;SDS011;11335;43.848;25.958;2023-06-26T01:33:40;26.42;;;9.65;;
22334;SDS011;11335;43.848;25.958;2023-06-26T01:36:26;19.92;;;9.80;;
22334;SDS011;11335;43.848;25.958;2023-06-26T01:39:15;21.15;;;8.98;;
22334;SDS011;11335;43.848;25.958;2023-06-26T01:42:01;22.90;;;9.93;;
22334;SDS011;11335;43.848;25.958;2023-06-26T01:44:47;21.23;;;8.95;;
22334;SDS011;11335;43.848;25.958;2023-06-26T01:47:34;22.70;;;9.40;;
22334;SDS011;11335;43.848;25.958;2023-06-26T01:50:24;26.17;;;8.88;;
22334;SDS011;11335;43.848;25.958;2023-06-26T01:53:17;29.27;;;8.93;;
22334;SDS011;11335;43.848;25.958;2023-06-26T01:56:06;28.42;;;9.23;;
22334;SDS011;11335;43.848;25.958;2023-06-26T01:58:58;30.10;;;9.30;;
22334;SDS011;11335;43.848;25.958;2023-06-26T02:01:45;25.00;;;9.07;;
22334;SDS011;11335;43.848;25.958;2023-06-26T02:04:32;29.48;;;9.65;;
22334;SDS011;11335;43.848;25.958;2023-06-26T02:07:17;30.67;;;9.05;;
22334;SDS011;11335;43.848;25.958;2023-06-26T02:10:03;26.13;;;9.68;;
22334;SDS011;11335;43.848;25.958;2023-06-26T02:12:49;30.30;;;8.77;;
22334;SDS011;11335;43.848;25.958;2023-06-26T02:15:35;31.63;;;9.52;;
22334;SDS011;11335;43.848;25.958;2023-06-26T02:18:21;31.50;;;9.30;;
22334;SDS011;11335;43.848;25.958;2023-06-26T02:21:08;37.65;;;9.93;;
22334;SDS011;11335;43.848;25.958;2023-06-26T02:23:54;24.60;;;8.40;;
22334;SDS011;11335;43.848;25.958;2023-06-26T02:26:40;27.40;;;8.35;;
22334;SDS011;11335;43.848;25.958;2023-06-26T02:29:26;35.45;;;9.32;;
22334;SDS011;11335;43.848;25.958;2023-06-26T02:32:12;29.85;;;8.30;;
22334;SDS011;11335;43.848;25.958;2023-06-26T02:34:57;31.48;;;10.05;;
22334;SDS011;11335;43.848;25.958;2023-06-26T02:37:43;30.27;;;9.10;;
22334;SDS011;11335;43.848;25.958;2023-06-26T02:40:30;29.73;;;9.05;;
22334;SDS011;11335;43.848;25.958;2023-06-26T02:43:15;30.25;;;10.05;;
22334;SDS011;11335;43.848;25.958;2023-06-26T02:46:01;28.88;;;9.68;;
22334;SDS011;11335;43.848;25.958;2023-06-26T02:48:47;21.50;;;8.50;;
22334;SDS011;11335;43.848;25.958;2023-06-26T02:51:33;29.10;;;9.20;;
22334;SDS011;11335;43.848;25.958;2023-06-26T02:54:19;31.80;;;9.45;;
22334;SDS011;11335;43.848;25.958;2023-06-26T02:57:05;26.35;;;8.60;;
22334;SDS011;11335;43.848;25.958;2023-06-26T02:59:51;43.20;;;11.90;;
22334;SDS011;11335;43.848;25.958;2023-06-26T03:02:36;25.50;;;9.48;;
22334;SDS011;11335;43.848;25.958;2023-06-26T03:05:22;41.10;;;9.48;;
22334;SDS011;11335;43.848;25.958;2023-06-26T03:08:09;28.17;;;9.55;;
22334;SDS011;11335;43.848;25.958;2023-06-26T03:10:55;28.40;;;9.95;;
22334;SDS011;11335;43.848;25.958;2023-06-26T03:13:40;22.55;;;9.82;;
22334;SDS011;11335;43.848;25.958;2023-06-26T03:16:26;30.10;;;10.43;;
22334;SDS011;11335;43.848;25.958;2023-06-26T03:19:12;27.60;;;9.48;;
22334;SDS011;11335;43.848;25.958;2023-06-26T03:21:57;32.03;;;9.70;;
22334;SDS011;11335;43.848;25.958;2023-06-26T03:24:43;28.85;;;9.77;;
22334;SDS011;11335;43.848;25.958;2023-06-26T03:27:30;22.77;;;9.38;;
22334;SDS011;11335;43.848;25.958;2023-06-26T03:30:16;26.05;;;10.48;;
22334;SDS011;11335;43.848;25.958;2023-06-26T03:33:02;23.17;;;10.60;;
22334;SDS011;11335;43.848;25.958;2023-06-26T03:35:47;25.60;;;10.30;;
22334;SDS011;11335;43.848;25.958;2023-06-26T03:38:33;23.15;;;10.18;;
22334;SDS011;11335;43.848;25.958;2023-06-26T03:41:19;24.92;;;11.07;;
22334;SDS011;11335;43.848;25.958;2023-06-26T03:44:04;29.30;;;11.55;;
22334;SDS011;11335;43.848;25.958;2023-06-26T03:46:50;31.80;;;12.20;;
22334;SDS011;11335;43.848;25.958;2023-06-26T03:49:36;29.35;;;12.43;;
22334;SDS011;11335;43.848;25.958;2023-06-26T03:52:22;28.45;;;12.60;;
22334;SDS011;11335;43.848;25.958;2023-06-26T03:55:08;23.70;;;13.27;;
22334;SDS011;11335;43.848;25.958;2023-06-26T03:57:54;27.98;;;11.98;;
22334;SDS011;11335;43.848;25.958;2023-06-26T04:00:39;27.60;;;13.32;;
22334;SDS011;11335;43.848;25.958;2023-06-26T04:03:26;29.33;;;12.82;;
22334;SDS011;11335;43.848;25.958;2023-06-26T04:06:11;34.40;;;13.52;;
22334;SDS011;11335;43.848;25.958;2023-06-26T04:08:57;23.67;;;11.82;;
22334;SDS011;11335;43.848;25.958;2023-06-26T04:11:43;31.52;;;13.10;;
22334;SDS011;11335;43.848;25.958;2023-06-26T04:14:29;24.58;;;12.13;;
22334;SDS011;11335;43.848;25.958;2023-06-26T04:17:15;21.33;;;11.50;;
22334;SDS011;11335;43.848;25.958;2023-06-26T04:20:00;26.63;;;12.50;;
22334;SDS011;11335;43.848;25.958;2023-06-26T04:22:46;35.17;;;12.50;;
22334;SDS011;11335;43.848;25.958;2023-06-26T04:25:32;26.90;;;10.20;;
22334;SDS011;11335;43.848;25.958;2023-06-26T04:28:17;26.80;;;9.85;;
22334;SDS011;11335;43.848;25.958;2023-06-26T04:31:03;25.25;;;9.93;;
22334;SDS011;11335;43.848;25.958;2023-06-26T04:33:49;23.90;;;9.45;;
22334;SDS011;11335;43.848;25.958;2023-06-26T04:36:36;28.70;;;11.27;;
22334;SDS011;11335;43.848;25.958;2023-06-26T04:39:24;27.30;;;11.27;;
22334;SDS011;11335;43.848;25.958;2023-06-26T04:42:10;26.25;;;10.25;;
22334;SDS011;11335;43.848;25.958;2023-06-26T04:44:57;25.30;;;10.05;;
22334;SDS011;11335;43.848;25.958;2023-06-26T04:47:43;27.73;;;9.70;;
22334;SDS011;11335;43.848;25.958;2023-06-26T04:50:29;26.33;;;11.18;;
22334;SDS011;11335;43.848;25.958;2023-06-26T04:53:16;29.08;;;9.52;;
22334;SDS011;11335;43.848;25.958;2023-06-26T04:56:01;24.85;;;11.23;;
22334;SDS011;11335;43.848;25.958;2023-06-26T04:58:47;25.10;;;10.88;;
22334;SDS011;11335;43.848;25.958;2023-06-26T05:01:33;23.30;;;10.07;;
22334;SDS011;11335;43.848;25.958;2023-06-26T05:04:19;31.92;;;11.57;;
22334;SDS011;11335;43.848;25.958;2023-06-26T05:07:05;35.08;;;11.88;;
22334;SDS011;11335;43.848;25.958;2023-06-26T05:09:50;25.73;;;10.73;;
22334;SDS011;11335;43.848;25.958;2023-06-26T05:12:36;29.92;;;11.55;;
22334;SDS011;11335;43.848;25.958;2023-06-26T05:15:22;29.10;;;11.95;;
22334;SDS011;11335;43.848;25.958;2023-06-26T05:18:07;25.42;;;12.18;;
22334;SDS011;11335;43.848;25.958;2023-06-26T05:20:53;24.33;;;11.85;;
22334;SDS011;11335;43.848;25.958;2023-06-26T05:23:39;25.90;;;11.48;;
22334;SDS011;11335;43.848;25.958;2023-06-26T05:26:26;32.63;;;12.57;;
22334;SDS011;11335;43.848;25.958;2023-06-26T05:29:12;23.65;;;12.68;;
22334;SDS011;11335;43.848;25.958;2023-06-26T05:31:58;22.20;;;13.18;;
22334;SDS011;11335;43.848;25.958;2023-06-26T05:34:48;23.45;;;11.32;;
22334;SDS011;11335;43.848;25.958;2023-06-26T05:37:35;31.73;;;12.77;;
22334;SDS011;11335;43.848;25.958;2023-06-26T05:40:21;26.95;;;12.65;;
22334;SDS011;11335;43.848;25.958;2023-06-26T05:43:07;23.92;;;11.75;;
22334;SDS011;11335;43.848;25.958;2023-06-26T05:45:53;27.45;;;11.85;;
22334;SDS011;11335;43.848;25.958;2023-06-26T05:48:38;22.38;;;11.25;;
22334;SDS011;11335;43.848;25.958;2023-06-26T05:51:24;32.28;;;13.10;;
22334;SDS011;11335;43.848;25.958;2023-06-26T05:54:10;23.83;;;11.15;;
22334;SDS011;11335;43.848;25.958;2023-06-26T05:56:58;31.58;;;12.27;;
22334;SDS011;11335;43.848;25.958;2023-06-26T05:59:47;30.73;;;12.98;;
22334;SDS011;11335;43.848;25.958;2023-06-26T06:02:33;27.73;;;13.32;;
22334;SDS011;11335;43.848;25.958;2023-06-26T06:05:21;27.65;;;12.20;;
22334;SDS011;11335;43.848;25.958;2023-06-26T06:08:07;35.47;;;13.07;;
22334;SDS011;11335;43.848;25.958;2023-06-26T06:10:53;29.90;;;11.63;;
22334;SDS011;11335;43.848;25.958;2023-06-26T06:13:39;25.17;;;12.15;;
22334;SDS011;11335;43.848;25.958;2023-06-26T06:16:24;22.73;;;11.50;;
22334;SDS011;11335;43.848;25.958;2023-06-26T06:19:10;27.15;;;10.23;;
22334;SDS011;11335;43.848;25.958;2023-06-26T06:21:58;24.60;;;11.05;;
22334;SDS011;11335;43.848;25.958;2023-06-26T06:24:44;31.48;;;11.32;;
22334;SDS011;11335;43.848;25.958;2023-06-26T06:27:30;29.13;;;13.93;;
22334;SDS011;11335;43.848;25.958;2023-06-26T06:30:16;23.55;;;11.15;;
22334;SDS011;11335;43.848;25.958;2023-06-26T06:33:02;29.88;;;11.85;;
22334;SDS011;11335;43.848;25.958;2023-06-26T06:35:48;23.60;;;10.88;;
22334;SDS011;11335;43.848;25.958;2023-06-26T06:38:34;21.08;;;10.00;;
22334;SDS011;11335;43.848;25.958;2023-06-26T06:41:20;20.55;;;9.27;;
22334;SDS011;11335;43.848;25.958;2023-06-26T06:44:06;20.45;;;10.43;;
22334;SDS011;11335;43.848;25.958;2023-06-26T06:46:51;29.38;;;11.65;;
22334;SDS011;11335;43.848;25.958;2023-06-26T06:49:37;22.05;;;9.75;;
22334;SDS011;11335;43.848;25.958;2023-06-26T06:52:23;19.73;;;9.80;;
22334;SDS011;11335;43.848;25.958;2023-06-26T06:55:09;15.35;;;7.50;;
22334;SDS011;11335;43.848;25.958;2023-06-26T06:57:55;17.42;;;8.25;;
22334;SDS011;11335;43.848;25.958;2023-06-26T07:00:40;18.67;;;9.55;;
22334;SDS011;11335;43.848;25.958;2023-06-26T07:03:26;14.27;;;7.28;;
22334;SDS011;11335;43.848;25.958;2023-06-26T07:06:12;14.18;;;7.47;;
22334;SDS011;11335;43.848;25.958;2023-06-26T07:08:58;14.90;;;7.70;;
22334;SDS011;11335;43.848;25.958;2023-06-26T07:11:44;11.88;;;7.13;;
22334;SDS011;11335;43.848;25.958;2023-06-26T07:14:29;17.58;;;7.00;;
22334;SDS011;11335;43.848;25.958;2023-06-26T07:17:15;13.65;;;6.93;;
22334;SDS011;11335;43.848;25.958;2023-06-26T07:20:01;13.40;;;7.53;;
22334;SDS011;11335;43.848;25.958;2023-06-26T07:22:53;10.98;;;6.55;;
22334;SDS011;11335;43.848;25.958;2023-06-26T07:25:39;25.27;;;6.88;;
22334;SDS011;11335;43.848;25.958;2023-06-26T07:28:25;11.60;;;6.63;;
22334;SDS011;11335;43.848;25.958;2023-06-26T07:31:10;9.25;;;6.10;;
22334;SDS011;11335;43.848;25.958;2023-06-26T07:33:56;15.90;;;6.75;;
22334;SDS011;11335;43.848;25.958;2023-06-26T07:36:42;12.43;;;6.90;;
22334;SDS011;11335;43.848;25.958;2023-06-26T07:39:27;11.73;;;6.13;;
22334;SDS011;11335;43.848;25.958;2023-06-26T07:42:13;19.00;;;7.05;;
22334;SDS011;11335;43.848;25.958;2023-06-26T07:44:59;13.77;;;6.10;;
22334;SDS011;11335;43.848;25.958;2023-06-26T07:47:45;19.52;;;7.15;;
22334;SDS011;11335;43.848;25.958;2023-06-26T07:50:31;11.18;;;6.88;;
22334;SDS011;11335;43.848;25.958;2023-06-26T07:53:17;15.55;;;6.45;;
22334;SDS011;11335;43.848;25.958;2023-06-26T07:56:02;10.20;;;6.55;;
22334;SDS011;11335;43.848;25.958;2023-06-26T07:58:48;13.35;;;6.63;;
22334;SDS011;11335;43.848;25.958;2023-06-26T08:01:34;10.77;;;6.15;;
22334;SDS011;11335;43.848;25.958;2023-06-26T08:04:20;9.13;;;5.95;;
22334;SDS011;11335;43.848;25.958;2023-06-26T08:07:08;16.38;;;5.88;;
22334;SDS011;11335;43.848;25.958;2023-06-26T08:09:54;18.52;;;6.22;;
22334;SDS011;11335;43.848;25.958;2023-06-26T08:12:40;19.85;;;7.05;;
22334;SDS011;11335;43.848;25.958;2023-06-26T08:15:28;7.85;;;6.22;;
22334;SDS011;11335;43.848;25.958;2023-06-26T08:18:13;12.85;;;6.78;;
22334;SDS011;11335;43.848;25.958;2023-06-26T08:20:59;11.23;;;6.20;;
22334;SDS011;11335;43.848;25.958;2023-06-26T08:23:45;16.23;;;6.47;;
22334;SDS011;11335;43.848;25.958;2023-06-26T08:26:31;10.07;;;6.47;;
22334;SDS011;11335;43.848;25.958;2023-06-26T08:29:17;13.82;;;6.90;;
22334;SDS011;11335;43.848;25.958;2023-06-26T08:32:03;10.18;;;5.90;;
22334;SDS011;11335;43.848;25.958;2023-06-26T08:34:49;17.00;;;6.78;;
22334;SDS011;11335;43.848;25.958;2023-06-26T08:37:36;19.42;;;6.75;;
22334;SDS011;11335;43.848;25.958;2023-06-26T08:40:21;18.17;;;6.82;;
22334;SDS011;11335;43.848;25.958;2023-06-26T08:43:07;8.02;;;6.65;;
22334;SDS011;11335;43.848;25.958;2023-06-26T08:45:53;15.52;;;6.07;;
22334;SDS011;11335;43.848;25.958;2023-06-26T08:48:39;52.40;;;8.25;;
22334;SDS011;11335;43.848;25.958;2023-06-26T08:51:30;8.68;;;6.28;;
22334;SDS011;11335;43.848;25.958;2023-06-26T08:54:22;11.65;;;6.45;;
22334;SDS011;11335;43.848;25.958;2023-06-26T08:57:15;16.55;;;6.60;;
22334;SDS011;11335;43.848;25.958;2023-06-26T09:00:04;12.52;;;6.85;;
22334;SDS011;11335;43.848;25.958;2023-06-26T09:02:50;14.15;;;6.95;;
22334;SDS011;11335;43.848;25.958;2023-06-26T09:05:36;25.23;;;7.68;;
22334;SDS011;11335;43.848;25.958;2023-06-26T09:08:22;11.52;;;6.53;;
22334;SDS011;11335;43.848;25.958;2023-06-26T09:11:08;11.23;;;6.40;;
22334;SDS011;11335;43.848;25.958;2023-06-26T09:13:53;14.43;;;6.40;;
22334;SDS011;11335;43.848;25.958;2023-06-26T09:16:41;11.13;;;6.95;;
22334;SDS011;11335;43.848;25.958;2023-06-26T09:19:27;10.10;;;6.53;;
22334;SDS011;11335;43.848;25.958;2023-06-26T09:22:13;11.70;;;6.60;;
22334;SDS011;11335;43.848;25.958;2023-06-26T09:24:59;11.07;;;6.78;;
22334;SDS011;11335;43.848;25.958;2023-06-26T09:27:46;11.55;;;7.43;;
22334;SDS011;11335;43.848;25.958;2023-06-26T09:30:32;9.82;;;6.78;;
22334;SDS011;11335;43.848;25.958;2023-06-26T09:33:18;11.55;;;7.03;;
22334;SDS011;11335;43.848;25.958;2023-06-26T09:36:06;12.50;;;7.60;;
22334;SDS011;11335;43.848;25.958;2023-06-26T09:38:52;11.30;;;7.03;;
22334;SDS011;11335;43.848;25.958;2023-06-26T09:41:39;11.93;;;7.20;;
22334;SDS011;11335;43.848;25.958;2023-06-26T09:44:26;12.23;;;7.38;;
22334;SDS011;11335;43.848;25.958;2023-06-26T09:47:12;14.30;;;8.00;;
22334;SDS011;11335;43.848;25.958;2023-06-26T09:50:04;11.93;;;7.65;;
22334;SDS011;11335;43.848;25.958;2023-06-26T09:52:51;10.57;;;7.97;;
22334;SDS011;11335;43.848;25.958;2023-06-26T09:55:37;12.95;;;7.38;;
22334;SDS011;11335;43.848;25.958;2023-06-26T09:58:23;9.85;;;7.47;;
22334;SDS011;11335;43.848;25.958;2023-06-26T10:01:12;10.40;;;7.93;;
22334;SDS011;11335;43.848;25.958;2023-06-26T10:03:58;12.55;;;10.18;;
22334;SDS011;11335;43.848;25.958;2023-06-26T10:06:47;10.07;;;8.07;;
22334;SDS011;11335;43.848;25.958;2023-06-26T10:09:37;11.20;;;8.27;;
22334;SDS011;11335;43.848;25.958;2023-06-26T10:12:27;14.20;;;8.90;;
22334;SDS011;11335;43.848;25.958;2023-06-26T10:15:15;13.55;;;8.40;;
22334;SDS011;11335;43.848;25.958;2023-06-26T10:18:02;11.25;;;8.13;;
22334;SDS011;11335;43.848;25.958;2023-06-26T10:20:48;17.48;;;9.07;;
22334;SDS011;11335;43.848;25.958;2023-06-26T10:23:36;14.52;;;8.63;;
22334;SDS011;11335;43.848;25.958;2023-06-26T10:26:26;14.38;;;8.82;;
22334;SDS011;11335;43.848;25.958;2023-06-26T10:29:13;9.68;;;8.60;;
22334;SDS011;11335;43.848;25.958;2023-06-26T10:32:02;14.13;;;9.18;;
22334;SDS011;11335;43.848;25.958;2023-06-26T10:34:51;11.45;;;7.65;;
22334;SDS011;11335;43.848;25.958;2023-06-26T10:37:44;12.32;;;8.70;;
22334;SDS011;11335;43.848;25.958;2023-06-26T10:40:43;19.90;;;9.13;;
22334;SDS011;11335;43.848;25.958;2023-06-26T10:43:35;10.73;;;8.27;;
22334;SDS011;11335;43.848;25.958;2023-06-26T10:46:24;12.65;;;8.15;;
22334;SDS011;11335;43.848;25.958;2023-06-26T10:49:10;12.20;;;8.43;;
22334;SDS011;11335;43.848;25.958;2023-06-26T10:52:00;13.60;;;8.45;;
22334;SDS011;11335;43.848;25.958;2023-06-26T10:54:46;10.38;;;7.53;;
22334;SDS011;11335;43.848;25.958;2023-06-26T10:57:32;14.55;;;8.57;;
22334;SDS011;11335;43.848;25.958;2023-06-26T11:00:20;11.65;;;7.57;;
22334;SDS011;11335;43.848;25.958;2023-06-26T11:03:22;14.75;;;8.23;;
22334;SDS011;11335;43.848;25.958;2023-06-26T11:06:09;11.20;;;8.13;;
22334;SDS011;11335;43.848;25.958;2023-06-26T11:09:09;13.25;;;8.40;;
22334;SDS011;11335;43.848;25.958;2023-06-26T11:12:00;13.45;;;7.75;;
22334;SDS011;11335;43.848;25.958;2023-06-26T11:14:50;11.65;;;8.00;;
22334;SDS011;11335;43.848;25.958;2023-06-26T11:17:36;17.70;;;9.43;;
22334;SDS011;11335;43.848;25.958;2023-06-26T11:20:22;13.70;;;8.70;;
22334;SDS011;11335;43.848;25.958;2023-06-26T11:23:08;13.02;;;9.15;;
22334;SDS011;11335;43.848;25.958;2023-06-26T11:25:55;14.73;;;8.50;;
22334;SDS011;11335;43.848;25.958;2023-06-26T11:28:50;12.60;;;7.40;;
22334;SDS011;11335;43.848;25.958;2023-06-26T11:31:37;9.10;;;6.88;;
22334;SDS011;11335;43.848;25.958;2023-06-26T11:34:24;14.23;;;6.93;;
22334;SDS011;11335;43.848;25.958;2023-06-26T11:37:19;9.20;;;6.85;;
22334;SDS011;11335;43.848;25.958;2023-06-26T11:40:18;9.93;;;6.25;;
22334;SDS011;11335;43.848;25.958;2023-06-26T11:43:05;7.45;;;6.45;;
22334;SDS011;11335;43.848;25.958;2023-06-26T11:45:54;8.18;;;5.43;;
22334;SDS011;11335;43.848;25.958;2023-06-26T11:48:39;8.95;;;5.93;;
22334;SDS011;11335;43.848;25.958;2023-06-26T11:51:28;9.18;;;5.63;;
22334;SDS011;11335;43.848;25.958;2023-06-26T11:54:14;11.18;;;5.90;;
22334;SDS011;11335;43.848;25.958;2023-06-26T11:57:00;12.30;;;5.80;;
22334;SDS011;11335;43.848;25.958;2023-06-26T11:59:49;12.40;;;5.15;;
22334;SDS011;11335;43.848;25.958;2023-06-26T12:02:35;6.53;;;5.00;;
22334;SDS011;11335;43.848;25.958;2023-06-26T12:05:21;5.63;;;4.60;;
22334;SDS011;11335;43.848;25.958;2023-06-26T12:08:07;5.97;;;4.78;;
22334;SDS011;11335;43.848;25.958;2023-06-26T12:10:53;6.60;;;4.80;;
22334;SDS011;11335;43.848;25.958;2023-06-26T12:13:39;5.47;;;4.43;;
22334;SDS011;11335;43.848;25.958;2023-06-26T12:16:24;5.55;;;4.63;;
22334;SDS011;11335;43.848;25.958;2023-06-26T12:19:11;5.78;;;4.40;;
22334;SDS011;11335;43.848;25.958;2023-06-26T12:21:57;9.73;;;4.85;;
22334;SDS011;11335;43.848;25.958;2023-06-26T12:24:44;6.80;;;4.75;;
22334;SDS011;11335;43.848;25.958;2023-06-26T12:27:30;8.60;;;4.72;;
22334;SDS011;11335;43.848;25.958;2023-06-26T12:30:16;8.73;;;4.60;;
22334;SDS011;11335;43.848;25.958;2023-06-26T12:33:02;7.82;;;4.80;;
22334;SDS011;11335;43.848;25.958;2023-06-26T12:35:47;5.82;;;4.75;;
22334;SDS011;11335;43.848;25.958;2023-06-26T12:38:33;6.90;;;4.60;;
22334;SDS011;11335;43.848;25.958;2023-06-26T12:41:19;6.72;;;4.30;;
22334;SDS011;11335;43.848;25.958;2023-06-26T12:44:05;5.95;;;4.32;;
22334;SDS011;11335;43.848;25.958;2023-06-26T12:47:02;7.40;;;4.20;;
22334;SDS011;11335;43.848;25.958;2023-06-26T12:49:51;9.00;;;4.63;;
22334;SDS011;11335;43.848;25.958;2023-06-26T12:52:38;6.60;;;4.30;;
22334;SDS011;11335;43.848;25.958;2023-06-26T12:55:23;7.07;;;4.40;;
22334;SDS011;11335;43.848;25.958;2023-06-26T12:58:10;5.10;;;3.85;;
22334;SDS011;11335;43.848;25.958;2023-06-26T13:00:56;4.53;;;3.70;;
22334;SDS011;11335;43.848;25.958;2023-06-26T13:03:42;6.57;;;3.80;;
22334;SDS011;11335;43.848;25.958;2023-06-26T13:06:28;5.90;;;4.10;;
22334;SDS011;11335;43.848;25.958;2023-06-26T13:09:14;4.82;;;3.67;;
22334;SDS011;11335;43.848;25.958;2023-06-26T13:12:00;8.40;;;3.72;;
22334;SDS011;11335;43.848;25.958;2023-06-26T13:14:46;6.45;;;4.00;;
22334;SDS011;11335;43.848;25.958;2023-06-26T13:17:31;11.77;;;4.30;;
22334;SDS011;11335;43.848;25.958;2023-06-26T13:20:17;5.65;;;4.00;;
22334;SDS011;11335;43.848;25.958;2023-06-26T13:23:03;6.15;;;3.90;;
22334;SDS011;11335;43.848;25.958;2023-06-26T13:25:48;7.43;;;4.45;;
22334;SDS011;11335;43.848;25.958;2023-06-26T13:28:36;6.25;;;3.83;;
22334;SDS011;11335;43.848;25.958;2023-06-26T13:31:22;5.93;;;4.25;;
22334;SDS011;11335;43.848;25.958;2023-06-26T13:34:08;6.35;;;3.88;;
22334;SDS011;11335;43.848;25.958;2023-06-26T13:36:54;9.13;;;4.13;;
22334;SDS011;11335;43.848;25.958;2023-06-26T13:39:40;9.05;;;4.10;;
22334;SDS011;11335;43.848;25.958;2023-06-26T13:42:25;7.88;;;3.92;;
22334;SDS011;11335;43.848;25.958;2023-06-26T13:45:11;5.97;;;3.65;;
22334;SDS011;11335;43.848;25.958;2023-06-26T13:47:57;9.40;;;4.28;;
22334;SDS011;11335;43.848;25.958;2023-06-26T13:50:43;10.80;;;4.35;;
22334;SDS011;11335;43.848;25.958;2023-06-26T13:53:28;5.45;;;4.10;;
22334;SDS011;11335;43.848;25.958;2023-06-26T13:56:14;9.55;;;4.13;;
22334;SDS011;11335;43.848;25.958;2023-06-26T13:59:00;7.45;;;4.28;;
22334;SDS011;11335;43.848;25.958;2023-06-26T14:01:46;7.18;;;3.90;;
22334;SDS011;11335;43.848;25.958;2023-06-26T14:04:32;7.00;;;3.78;;
22334;SDS011;11335;43.848;25.958;2023-06-26T14:07:18;6.03;;;3.70;;
22334;SDS011;11335;43.848;25.958;2023-06-26T14:10:04;9.15;;;4.50;;
22334;SDS011;11335;43.848;25.958;2023-06-26T14:12:51;6.03;;;3.95;;
22334;SDS011;11335;43.848;25.958;2023-06-26T14:15:37;5.72;;;4.13;;
22334;SDS011;11335;43.848;25.958;2023-06-26T14:18:25;9.75;;;4.03;;
22334;SDS011;11335;43.848;25.958;2023-06-26T14:21:13;7.85;;;3.97;;
22334;SDS011;11335;43.848;25.958;2023-06-26T14:23:59;7.72;;;4.05;;
22334;SDS011;11335;43.848;25.958;2023-06-26T14:26:44;8.30;;;3.97;;
22334;SDS011;11335;43.848;25.958;2023-06-26T14:29:30;5.82;;;4.00;;
22334;SDS011;11335;43.848;25.958;2023-06-26T14:32:16;7.90;;;4.00;;
22334;SDS011;11335;43.848;25.958;2023-06-26T14:35:02;8.60;;;3.97;;
22334;SDS011;11335;43.848;25.958;2023-06-26T14:37:48;7.50;;;3.95;;
22334;SDS011;11335;43.848;25.958;2023-06-26T14:40:34;6.72;;;4.05;;
22334;SDS011;11335;43.848;25.958;2023-06-26T14:43:20;5.60;;;3.60;;
22334;SDS011;11335;43.848;25.958;2023-06-26T14:46:06;7.82;;;4.10;;
22334;SDS011;11335;43.848;25.958;2023-06-26T14:48:51;5.75;;;4.28;;
22334;SDS011;11335;43.848;25.958;2023-06-26T14:51:37;5.40;;;3.42;;
22334;SDS011;11335;43.848;25.958;2023-06-26T14:54:25;4.85;;;3.38;;
22334;SDS011;11335;43.848;25.958;2023-06-26T14:57:11;5.57;;;3.10;;
22334;SDS011;11335;43.848;25.958;2023-06-26T14:59:57;5.70;;;3.70;;
22334;SDS011;11335;43.848;25.958;2023-06-26T15:02:43;11.73;;;4.90;;
22334;SDS011;11335;43.848;25.958;2023-06-26T15:05:28;8.95;;;6.93;;
22334;SDS011;11335;43.848;25.958;2023-06-26T15:08:14;4.10;;;3.47;;
22334;SDS011;11335;43.848;25.958;2023-06-26T15:11:01;9.45;;;5.40;;
22334;SDS011;11335;43.848;25.958;2023-06-26T15:13:48;5.70;;;3.65;;
22334;SDS011;11335;43.848;25.958;2023-06-26T15:16:34;5.55;;;4.45;;
22334;SDS011;11335;43.848;25.958;2023-06-26T15:19:20;8.23;;;3.60;;
22334;SDS011;11335;43.848;25.958;2023-06-26T15:22:05;6.55;;;3.75;;
22334;SDS011;11335;43.848;25.958;2023-06-26T15:24:51;7.60;;;3.50;;
22334;SDS011;11335;43.848;25.958;2023-06-26T15:27:38;8.55;;;3.58;;
22334;SDS011;11335;43.848;25.958;2023-06-26T15:30:23;8.20;;;3.78;;
22334;SDS011;11335;43.848;25.958;2023-06-26T15:33:09;8.73;;;3.70;;
22334;SDS011;11335;43.848;25.958;2023-06-26T15:35:55;6.68;;;4.00;;
22334;SDS011;11335;43.848;25.958;2023-06-26T15:38:40;7.90;;;4.00;;
22334;SDS011;11335;43.848;25.958;2023-06-26T15:41:26;5.18;;;3.90;;
22334;SDS011;11335;43.848;25.958;2023-06-26T15:44:12;5.97;;;3.83;;
22334;SDS011;11335;43.848;25.958;2023-06-26T15:46:58;11.80;;;4.18;;
22334;SDS011;11335;43.848;25.958;2023-06-26T15:49:44;6.25;;;3.65;;
22334;SDS011;11335;43.848;25.958;2023-06-26T15:52:30;6.90;;;3.67;;
22334;SDS011;11335;43.848;25.958;2023-06-26T15:55:16;4.45;;;3.75;;
22334;SDS011;11335;43.848;25.958;2023-06-26T15:58:02;7.97;;;3.85;;
22334;SDS011;11335;43.848;25.958;2023-06-26T16:00:48;6.25;;;4.32;;
22334;SDS011;11335;43.848;25.958;2023-06-26T16:03:33;4.97;;;4.25;;
22334;SDS011;11335;43.848;25.958;2023-06-26T16:06:19;6.90;;;3.92;;
22334;SDS011;11335;43.848;25.958;2023-06-26T16:09:05;8.18;;;4.00;;
22334;SDS011;11335;43.848;25.958;2023-06-26T16:11:51;11.25;;;4.18;;
22334;SDS011;11335;43.848;25.958;2023-06-26T16:14:37;7.75;;;4.03;;
22334;SDS011;11335;43.848;25.958;2023-06-26T16:17:22;9.75;;;4.03;;
22334;SDS011;11335;43.848;25.958;2023-06-26T16:20:08;7.80;;;4.30;;